Time;durP1;ratioP1;P1;durP2;ratioP2;P2;SDS_P1;SDS_P2;PMS_P1;PMS_P2;Temp;Humidity;BMP_temperature;BMP_pressure;BME280_temperature;BME280_humidity;BME280_pressure;Samples;Min_cycle;Max_cycle;Signal;HPM_P1;HPM_P2
2022/11/07 00:02:03;;;;;;;2.38;0.85;;;13.50;56.10;;;;;;5020093;28;21022;-43
2022/11/07 00:04:31;;;;;;;1.38;0.88;;;13.50;56.20;;;;;;5024266;28;20248;-45
2022/11/07 00:06:59;;;;;;;3.22;0.80;;;13.40;56.20;;;;;;5023050;28;20057;-43
2022/11/07 00:09:27;;;;;;;1.77;0.88;;;13.50;56.20;;;;;;5024210;28;20057;-40
2022/11/07 00:11:54;;;;;;;1.55;0.88;;;13.50;56.20;;;;;;5017829;28;20425;-42
2022/11/07 00:14:23;;;;;;;2.22;0.75;;;13.50;56.20;;;;;;5006391;28;20374;-44
2022/11/07 00:16:50;;;;;;;2.50;0.60;;;13.50;56.30;;;;;;5023334;28;20050;-45
2022/11/07 00:19:21;;;;;;;1.23;0.80;;;13.50;56.30;;;;;;5017310;28;20114;-43
2022/11/07 00:21:49;;;;;;;1.98;0.73;;;13.50;56.40;;;;;;5019006;28;20053;-40
2022/11/07 00:24:18;;;;;;;1.30;0.63;;;13.50;56.40;;;;;;5023967;28;20425;-44
2022/11/07 00:26:46;;;;;;;1.05;0.60;;;13.50;56.40;;;;;;5018800;28;20057;-40
2022/11/07 00:29:14;;;;;;;4.55;0.70;;;13.50;56.40;;;;;;5023729;28;20077;-43
2022/11/07 00:31:43;;;;;;;1.70;0.70;;;13.50;56.50;;;;;;5004110;28;20053;-44
2022/11/07 00:34:10;;;;;;;1.15;0.60;;;13.50;56.50;;;;;;5024526;28;20064;-44
2022/11/07 00:36:38;;;;;;;2.25;0.70;;;13.50;56.50;;;;;;5023303;28;20053;-41
2022/11/07 00:39:05;;;;;;;0.93;0.50;;;13.50;56.60;;;;;;5018358;28;20053;-40
2022/11/07 00:41:33;;;;;;;0.77;0.43;;;13.50;56.60;;;;;;5018637;28;20053;-44
2022/11/07 00:44:00;;;;;;;1.52;0.80;;;13.50;56.60;;;;;;5023639;28;20489;-42
2022/11/07 00:46:27;;;;;;;4.00;0.82;;;13.50;56.60;;;;;;5020736;28;20057;-40
2022/11/07 00:48:56;;;;;;;2.33;0.73;;;13.50;56.70;;;;;;5010415;28;20437;-43
2022/11/07 00:51:25;;;;;;;2.10;0.60;;;13.50;56.70;;;;;;5013854;28;20060;-43
2022/11/07 00:53:53;;;;;;;1.70;0.60;;;13.50;56.70;;;;;;5022819;28;20049;-40
2022/11/07 00:56:24;;;;;;;1.30;0.50;;;13.50;56.70;;;;;;5023597;28;20057;-40
2022/11/07 00:58:54;;;;;;;1.20;0.40;;;13.50;56.70;;;;;;5016408;28;20058;-42
2022/11/07 01:01:23;;;;;;;1.73;0.50;;;13.50;56.70;;;;;;5012875;28;20112;-41
2022/11/07 01:06:38;;;;;;;1.02;0.57;;;13.50;56.70;;;;;;5021619;28;20045;-44
2022/11/07 01:09:07;;;;;;;2.92;0.52;;;13.50;56.70;;;;;;5022536;28;20053;-41
2022/11/07 01:11:35;;;;;;;0.73;0.60;;;13.50;56.70;;;;;;5019298;28;20053;-43
2022/11/07 01:14:03;;;;;;;2.17;0.70;;;13.50;56.70;;;;;;5015947;28;20054;-40
2022/11/07 01:16:33;;;;;;;0.88;0.40;;;13.50;56.70;;;;;;5022528;28;20053;-41
2022/11/07 01:19:01;;;;;;;1.02;0.45;;;13.50;56.70;;;;;;5016521;28;20045;-39
2022/11/07 01:21:28;;;;;;;1.30;0.57;;;13.50;56.70;;;;;;5009932;28;20411;-40
2022/11/07 01:23:59;;;;;;;2.47;0.73;;;13.50;56.70;;;;;;5021969;28;20406;-41
2022/11/07 01:26:26;;;;;;;1.92;1.17;;;13.50;56.70;;;;;;5023321;28;20061;-41
2022/11/07 01:28:53;;;;;;;2.20;0.70;;;13.50;56.70;;;;;;5023339;28;20053;-42
2022/11/07 01:31:21;;;;;;;1.48;0.70;;;13.50;56.70;;;;;;5015644;28;20064;-40
2022/11/07 01:33:48;;;;;;;2.70;0.80;;;13.50;56.70;;;;;;5022976;28;20053;-41
2022/11/07 01:36:17;;;;;;;1.77;0.80;;;13.50;56.70;;;;;;5022432;28;20057;-40
2022/11/07 01:38:47;;;;;;;2.53;0.82;;;13.50;56.80;;;;;;5013622;28;20052;-41
2022/11/07 01:41:21;;;;;;;3.97;1.13;;;13.50;56.70;;;;;;5019184;28;20481;-42
2022/11/07 01:43:52;;;;;;;2.65;0.70;;;13.50;56.70;;;;;;5022661;28;20398;-40
2022/11/07 01:46:20;;;;;;;1.85;0.60;;;13.50;56.70;;;;;;5021511;28;20583;-41
2022/11/07 01:48:52;;;;;;;2.72;0.70;;;13.50;56.70;;;;;;5022872;28;20045;-41
2022/11/07 01:51:22;;;;;;;2.38;0.70;;;13.50;56.70;;;;;;5017794;28;20053;-44
2022/11/07 01:53:51;;;;;;;3.80;0.73;;;13.50;56.70;;;;;;5022646;28;20088;-46
2022/11/07 01:56:23;;;;;;;2.58;0.88;;;13.50;56.70;;;;;;5010629;28;20061;-41
2022/11/07 01:58:52;;;;;;;3.97;0.90;;;13.50;56.80;;;;;;5020293;28;20488;-40
2022/11/07 02:01:19;;;;;;;2.95;0.80;;;13.50;56.80;;;;;;5017642;28;20053;-50
2022/11/07 02:03:47;;;;;;;2.40;0.75;;;13.50;56.80;;;;;;5022322;28;20065;-49
2022/11/07 02:06:19;;;;;;;2.75;1.10;;;13.50;56.80;;;;;;5021419;28;20060;-47
2022/11/07 02:08:48;;;;;;;2.40;0.70;;;13.50;56.80;;;;;;5022311;28;20069;-51
2022/11/07 02:11:17;;;;;;;2.83;1.20;;;13.50;56.80;;;;;;5017115;28;20061;-50
2022/11/07 02:13:46;;;;;;;2.17;0.90;;;13.50;56.80;;;;;;5019399;28;20481;-48
2022/11/07 02:16:13;;;;;;;2.05;0.70;;;13.50;56.80;;;;;;5020339;28;20057;-51
2022/11/07 02:18:43;;;;;;;2.47;1.08;;;13.50;56.80;;;;;;5016925;28;20046;-50
2022/11/07 02:21:17;;;;;;;5.35;1.20;;;13.50;56.80;;;;;;5014678;28;20049;-50
2022/11/07 02:23:53;;;;;;;3.78;0.80;;;13.60;56.90;;;;;;5022238;28;20512;-48
2022/11/07 02:26:22;;;;;;;2.63;0.68;;;13.50;56.90;;;;;;5022736;28;20065;-50
2022/11/07 02:28:52;;;;;;;0.80;0.70;;;13.50;56.90;;;;;;5016458;28;20054;-50
2022/11/07 02:31:20;;;;;;;1.45;0.73;;;13.60;56.90;;;;;;5014514;28;20587;-49
2022/11/07 02:33:47;;;;;;;4.35;1.10;;;13.50;56.80;;;;;;5022594;28;20049;-50
2022/11/07 02:36:17;;;;;;;3.67;0.93;;;13.60;56.90;;;;;;5024947;28;20057;-47
2022/11/07 02:38:45;;;;;;;2.28;0.80;;;13.60;56.90;;;;;;5015514;28;20393;-49
2022/11/07 02:41:16;;;;;;;1.88;0.73;;;13.50;56.80;;;;;;5015611;28;20058;-49
2022/11/07 02:43:48;;;;;;;2.95;0.82;;;13.60;56.90;;;;;;5024600;28;20053;-46
2022/11/07 02:46:16;;;;;;;4.72;0.90;;;13.60;56.90;;;;;;5020667;28;20057;-51
2022/11/07 02:48:46;;;;;;;4.32;1.30;;;13.60;56.90;;;;;;5022903;28;20050;-46
2022/11/07 02:51:14;;;;;;;3.70;1.10;;;13.50;56.80;;;;;;5019212;28;20060;-47
2022/11/07 02:53:42;;;;;;;3.92;1.00;;;13.50;56.80;;;;;;5021242;28;21599;-50
2022/11/07 02:56:09;;;;;;;1.77;0.75;;;13.50;56.80;;;;;;5013564;28;20053;-48
2022/11/07 02:58:37;;;;;;;4.32;1.08;;;13.50;56.90;;;;;;5018663;28;20053;-51
2022/11/07 03:01:11;;;;;;;3.72;0.98;;;13.50;56.90;;;;;;5022744;28;20417;-50
2022/11/07 03:03:40;;;;;;;3.08;1.10;;;13.50;56.90;;;;;;5017352;28;20068;-51
2022/11/07 03:06:09;;;;;;;7.53;1.33;;;13.50;56.90;;;;;;5023588;28;20065;-50
2022/11/07 03:08:37;;;;;;;7.15;1.10;;;13.50;57.00;;;;;;5024920;28;20045;-48
2022/11/07 03:11:05;;;;;;;3.47;1.27;;;13.50;57.00;;;;;;5024097;28;20397;-50
2022/11/07 03:13:33;;;;;;;2.67;1.17;;;13.50;57.10;;;;;;5023798;28;20068;-47
2022/11/07 03:16:03;;;;;;;4.05;0.90;;;13.50;57.10;;;;;;5024992;28;20060;-46
2022/11/07 03:18:32;;;;;;;1.33;0.70;;;13.50;57.10;;;;;;5021378;28;20428;-48
2022/11/07 03:21:00;;;;;;;3.83;1.23;;;13.50;57.10;;;;;;5020666;28;20053;-47
2022/11/07 03:23:27;;;;;;;4.88;1.23;;;13.50;57.10;;;;;;5025090;28;20497;-42
2022/11/07 03:25:54;;;;;;;4.72;1.05;;;13.50;57.20;;;;;;5022033;28;20485;-40
2022/11/07 03:28:21;;;;;;;4.88;0.77;;;13.50;57.60;;;;;;5025286;28;20060;-45
2022/11/07 03:30:48;;;;;;;3.67;1.02;;;13.50;57.10;;;;;;5021379;28;20421;-42
2022/11/07 03:33:16;;;;;;;3.63;0.98;;;13.50;57.10;;;;;;5023574;28;20050;-41
2022/11/07 03:35:44;;;;;;;1.63;0.95;;;13.50;57.10;;;;;;5020770;28;20397;-40
2022/11/07 03:38:12;;;;;;;1.83;0.85;;;13.50;57.50;;;;;;5021795;28;20421;-40
2022/11/07 03:40:39;;;;;;;1.17;0.70;;;13.50;56.90;;;;;;5022804;28;20072;-41
2022/11/07 03:43:06;;;;;;;2.75;1.15;;;13.50;56.90;;;;;;5023786;28;20053;-40
2022/11/07 03:45:33;;;;;;;2.90;1.15;;;13.50;56.80;;;;;;5024427;28;20493;-40
2022/11/07 03:48:00;;;;;;;3.70;1.15;;;13.50;56.80;;;;;;5024525;28;20056;-39
2022/11/07 03:50:28;;;;;;;1.92;1.05;;;13.50;56.80;;;;;;5022162;28;20050;-40
2022/11/07 03:52:56;;;;;;;1.85;1.00;;;13.40;56.70;;;;;;5020534;28;20053;-41
2022/11/07 03:55:23;;;;;;;4.93;1.25;;;13.40;56.70;;;;;;5023861;28;20064;-43
2022/11/07 03:57:51;;;;;;;5.13;1.20;;;13.40;56.70;;;;;;5018582;28;20528;-43
2022/11/07 04:00:18;;;;;;;1.33;0.93;;;13.40;56.80;;;;;;5021496;28;20064;-41
2022/11/07 04:02:46;;;;;;;6.05;1.40;;;13.40;56.80;;;;;;5023922;28;20507;-40
2022/11/07 04:05:13;;;;;;;2.53;1.10;;;13.30;56.80;;;;;;5023655;28;20057;-40
2022/11/07 04:07:40;;;;;;;2.67;1.20;;;13.30;56.80;;;;;;5024821;28;20057;-40
2022/11/07 04:10:09;;;;;;;3.55;1.50;;;13.30;56.80;;;;;;5014759;28;20509;-40
2022/11/07 04:18:05;;;;;;;;;;;13.30;56.90;;;;;;5029590;28;20065;-39
2022/11/07 04:20:32;;;;;;;5.50;1.40;;;13.30;56.90;;;;;;5023503;28;19925;-40
2022/11/07 04:23:00;;;;;;;1.95;1.08;;;13.30;56.70;;;;;;5023650;28;20516;-42
2022/11/07 04:28:15;;;;;;;3.65;1.60;;;13.20;56.70;;;;;;5029391;28;20064;-39
2022/11/07 04:30:42;;;;;;;2.13;1.30;;;13.20;56.70;;;;;;5017848;28;20057;-40
2022/11/07 04:33:09;;;;;;;6.47;1.63;;;13.20;56.70;;;;;;5023589;28;20053;-40
2022/11/07 04:35:37;;;;;;;4.03;1.20;;;13.10;56.80;;;;;;5022283;28;20064;-40
2022/11/07 04:38:04;;;;;;;4.70;1.48;;;13.10;56.90;;;;;;5022645;28;20057;-41
2022/11/07 04:40:32;;;;;;;3.78;1.52;;;13.00;57.00;;;;;;5023301;28;20068;-41
2022/11/07 04:43:00;;;;;;;4.40;1.42;;;13.00;57.10;;;;;;5022869;28;20065;-39
2022/11/07 04:45:28;;;;;;;3.20;1.20;;;13.00;57.20;;;;;;5022299;28;20076;-40
2022/11/07 04:47:55;;;;;;;8.82;1.85;;;13.00;57.20;;;;;;5022990;28;20057;-40
2022/11/07 04:50:23;;;;;;;5.25;1.33;;;12.90;57.20;;;;;;5022967;28;20049;-41
2022/11/07 04:52:50;;;;;;;5.43;1.30;;;12.90;57.40;;;;;;5019502;28;20065;-41
2022/11/07 04:55:21;;;;;;;9.48;1.90;;;12.90;57.40;;;;;;5023059;28;20505;-39
2022/11/07 04:57:49;;;;;;;3.75;1.50;;;12.90;57.60;;;;;;5022243;28;20056;-44
2022/11/07 05:00:18;;;;;;;7.45;1.83;;;12.90;57.60;;;;;;5022373;28;20053;-39
2022/11/07 05:02:46;;;;;;;5.13;1.40;;;12.90;57.80;;;;;;5021439;28;20432;-40
2022/11/07 05:05:14;;;;;;;7.22;2.22;;;12.90;57.80;;;;;;5021902;28;20057;-40
2022/11/07 05:07:41;;;;;;;5.13;1.10;;;12.90;57.80;;;;;;5019539;28;20112;-40
2022/11/07 05:10:16;;;;;;;3.60;1.23;;;12.90;57.90;;;;;;5021381;28;20053;-39
2022/11/07 05:12:43;;;;;;;7.50;1.77;;;12.90;58.00;;;;;;5019075;28;20057;-42
2022/11/07 05:15:12;;;;;;;6.80;1.63;;;12.90;58.10;;;;;;5023101;28;20049;-42
2022/11/07 05:17:39;;;;;;;6.40;1.30;;;12.90;58.40;;;;;;5018977;28;20053;-39
2022/11/07 05:20:07;;;;;;;2.70;1.13;;;13.00;58.50;;;;;;5022359;28;21339;-40
2022/11/07 05:25:19;;;;;;;16.17;6.25;;;13.00;58.50;;;;;;5029241;28;20056;-40
2022/11/07 05:27:47;;;;;;;6.97;2.85;;;13.00;58.50;;;;;;5021152;28;20083;-41
2022/11/07 05:30:15;;;;;;;8.88;1.75;;;13.00;58.50;;;;;;5022616;28;20065;-45
2022/11/07 05:32:42;;;;;;;6.32;1.35;;;13.10;58.50;;;;;;5022053;28;20053;-40
2022/11/07 05:35:10;;;;;;;4.22;1.10;;;13.10;58.50;;;;;;5020861;28;20065;-40
2022/11/07 05:37:37;;;;;;;3.28;1.23;;;13.10;58.40;;;;;;5021807;28;20053;-40
2022/11/07 05:40:06;;;;;;;4.95;1.20;;;13.10;58.30;;;;;;5022999;28;20049;-40
2022/11/07 05:42:33;;;;;;;4.50;0.98;;;13.20;58.40;;;;;;5022729;28;20060;-45
2022/11/07 05:45:00;;;;;;;4.78;0.88;;;13.20;58.30;;;;;;5019239;28;20497;-43
2022/11/07 05:47:29;;;;;;;9.35;1.52;;;13.20;58.20;;;;;;5021789;28;20053;-43
2022/11/07 05:49:56;;;;;;;7.55;1.50;;;13.20;58.20;;;;;;5020429;28;20382;-40
2022/11/07 05:52:23;;;;;;;5.65;1.20;;;13.20;58.10;;;;;;5017491;28;20057;-42
2022/11/07 05:54:50;;;;;;;3.80;1.08;;;13.30;58.10;;;;;;5022682;28;20057;-41
2022/11/07 05:57:17;;;;;;;4.05;0.93;;;13.30;58.10;;;;;;5018934;28;20068;-41
2022/11/07 05:59:45;;;;;;;9.02;2.13;;;13.30;58.10;;;;;;5022557;28;20058;-41
2022/11/07 06:02:12;;;;;;;16.80;4.75;;;13.30;58.00;;;;;;5022026;28;20054;-41
2022/11/07 06:04:40;;;;;;;16.23;5.05;;;13.30;58.00;;;;;;5022821;28;21393;-40
2022/11/07 06:07:08;;;;;;;7.28;2.28;;;13.30;58.00;;;;;;5021262;28;20049;-44
2022/11/07 06:09:35;;;;;;;8.77;1.60;;;13.30;58.00;;;;;;5023359;28;20050;-45
2022/11/07 06:12:02;;;;;;;6.43;1.40;;;13.30;58.00;;;;;;5025906;28;20405;-42
2022/11/07 06:14:29;;;;;;;7.20;0.98;;;13.30;58.00;;;;;;5026280;28;20069;-40
2022/11/07 06:16:57;;;;;;;3.92;1.08;;;13.30;58.00;;;;;;5025828;28;20049;-46
2022/11/07 06:19:24;;;;;;;5.78;0.90;;;13.40;58.10;;;;;;5026405;28;20049;-40
2022/11/07 06:21:52;;;;;;;11.43;1.65;;;13.40;58.10;;;;;;5025176;28;20049;-40
2022/11/07 06:24:20;;;;;;;3.75;0.93;;;13.40;58.10;;;;;;5027004;28;20057;-41
2022/11/07 06:26:47;;;;;;;8.52;1.70;;;13.40;58.10;;;;;;5024488;28;20069;-44
2022/11/07 06:29:14;;;;;;;5.70;1.23;;;13.40;58.10;;;;;;5024962;28;20061;-41
2022/11/07 06:31:41;;;;;;;4.72;1.08;;;13.50;58.10;;;;;;5026421;28;20068;-42
2022/11/07 06:34:09;;;;;;;4.45;1.00;;;13.50;58.10;;;;;;5020793;28;20409;-40
2022/11/07 06:36:37;;;;;;;5.93;1.50;;;13.50;58.00;;;;;;5023535;28;20060;-41
2022/11/07 06:39:06;;;;;;;6.38;1.23;;;13.50;58.00;;;;;;5020262;28;20046;-41
2022/11/07 06:41:34;;;;;;;6.30;1.10;;;13.50;58.00;;;;;;5023651;28;20414;-43
2022/11/07 06:44:02;;;;;;;7.15;1.95;;;13.60;58.00;;;;;;5024180;28;20057;-42
2022/11/07 06:46:30;;;;;;;3.72;1.17;;;13.60;58.00;;;;;;5023866;28;20053;-42
2022/11/07 06:48:58;;;;;;;4.07;1.00;;;13.60;58.00;;;;;;5022694;28;20061;-42
2022/11/07 06:51:26;;;;;;;7.90;1.42;;;13.70;58.00;;;;;;5018796;28;20053;-41
2022/11/07 06:53:54;;;;;;;6.13;1.15;;;13.70;58.00;;;;;;5022187;28;20064;-40
2022/11/07 06:56:23;;;;;;;5.75;1.35;;;13.70;58.00;;;;;;5023233;28;20061;-41
2022/11/07 06:58:52;;;;;;;11.77;1.67;;;13.70;58.00;;;;;;5022183;28;20516;-43
2022/11/07 07:01:19;;;;;;;6.43;1.33;;;13.70;58.00;;;;;;5014531;28;20072;-41
2022/11/07 07:03:47;;;;;;;5.30;1.40;;;13.80;58.00;;;;;;5013181;28;20564;-41
2022/11/07 07:06:16;;;;;;;5.45;0.90;;;13.80;58.00;;;;;;5025126;28;20049;-44
2022/11/07 07:08:44;;;;;;;6.68;1.40;;;13.80;58.00;;;;;;5019504;28;20058;-41
2022/11/07 07:11:13;;;;;;;7.28;1.23;;;13.80;58.00;;;;;;5023075;28;20045;-39
2022/11/07 07:13:42;;;;;;;8.45;1.52;;;13.90;58.00;;;;;;5025970;28;20421;-40
2022/11/07 07:16:09;;;;;;;6.07;1.08;;;13.90;58.00;;;;;;5024100;28;20049;-40
2022/11/07 07:18:37;;;;;;;7.65;1.05;;;13.90;58.00;;;;;;5019687;28;20398;-40
2022/11/07 07:21:06;;;;;;;4.88;1.10;;;14.00;58.00;;;;;;5023168;28;20076;-41
2022/11/07 07:23:34;;;;;;;5.50;1.05;;;14.00;58.00;;;;;;5024789;28;20057;-40
2022/11/07 07:26:02;;;;;;;9.88;1.63;;;14.00;58.00;;;;;;5025302;28;20057;-41
2022/11/07 07:28:30;;;;;;;6.57;1.23;;;14.00;58.00;;;;;;5020706;28;20062;-43
2022/11/07 07:31:09;;;;;;;8.32;1.10;;;14.10;58.00;;;;;;5019964;28;20049;-44
2022/11/07 07:33:37;;;;;;;11.15;1.73;;;14.10;58.00;;;;;;5025610;28;20057;-39
2022/11/07 07:36:05;;;;;;;4.78;1.10;;;14.10;58.00;;;;;;5019210;28;20057;-40
2022/11/07 07:38:32;;;;;;;6.70;1.00;;;14.10;58.00;;;;;;5024719;28;20528;-39
2022/11/07 07:40:59;;;;;;;5.30;1.00;;;14.10;58.00;;;;;;5020915;28;20050;-40
2022/11/07 07:43:29;;;;;;;25.85;8.57;;;14.10;58.00;;;;;;5019771;28;20501;-40
2022/11/07 07:45:58;;;;;;;18.10;6.63;;;14.20;58.10;;;;;;5023187;28;20057;-40
2022/11/07 07:48:27;;;;;;;11.80;3.38;;;14.20;58.10;;;;;;5018113;28;20045;-43
2022/11/07 07:50:55;;;;;;;5.55;1.65;;;14.20;58.00;;;;;;5012793;28;20060;-42
2022/11/07 07:53:22;;;;;;;9.65;1.48;;;14.30;58.00;;;;;;5021614;28;20076;-40
2022/11/07 07:55:49;;;;;;;4.88;1.30;;;14.30;58.00;;;;;;5022380;28;20061;-39
2022/11/07 07:58:16;;;;;;;8.13;1.58;;;14.30;58.00;;;;;;5023184;28;20057;-41
2022/11/07 08:00:44;;;;;;;7.03;1.13;;;14.30;58.00;;;;;;5022550;28;20052;-42
2022/11/07 08:03:12;;;;;;;3.75;1.17;;;14.30;58.00;;;;;;5015483;28;20527;-43
2022/11/07 08:05:40;;;;;;;8.10;1.70;;;14.40;58.00;;;;;;5021097;28;20045;-38
2022/11/07 08:08:08;;;;;;;9.63;1.65;;;14.40;58.00;;;;;;5017979;28;20057;-38
2022/11/07 08:10:36;;;;;;;5.57;1.48;;;14.40;57.90;;;;;;5022907;28;20057;-43
2022/11/07 08:13:03;;;;;;;3.50;1.20;;;14.40;58.40;;;;;;5023198;28;20509;-40
2022/11/07 08:15:30;;;;;;;7.65;1.50;;;14.50;57.90;;;;;;5024431;28;20053;-42
2022/11/07 08:18:01;;;;;;;9.27;1.55;;;14.50;57.90;;;;;;5024214;28;20068;-43
2022/11/07 08:20:28;;;;;;;4.35;1.13;;;14.50;57.90;;;;;;5019271;28;20057;-41
2022/11/07 08:23:02;;;;;;;7.70;1.35;;;14.50;57.90;;;;;;5021778;28;20053;-40
2022/11/07 08:25:29;;;;;;;10.95;1.55;;;14.60;58.00;;;;;;5019350;28;20060;-42
2022/11/07 08:27:56;;;;;;;6.30;1.40;;;14.60;58.00;;;;;;5021763;28;20057;-41
2022/11/07 08:30:25;;;;;;;5.00;1.10;;;14.60;58.10;;;;;;5019502;28;20065;-41
2022/11/07 08:32:53;;;;;;;8.27;2.00;;;14.60;58.10;;;;;;5022787;28;20053;-43
2022/11/07 08:35:20;;;;;;;6.88;1.20;;;14.60;58.10;;;;;;5021741;28;20068;-41
2022/11/07 08:37:47;;;;;;;4.75;1.25;;;14.70;58.20;;;;;;5022740;28;20049;-39
2022/11/07 08:40:16;;;;;;;5.75;1.20;;;14.70;58.20;;;;;;5019604;28;20053;-42
2022/11/07 08:42:43;;;;;;;5.22;1.15;;;14.70;58.20;;;;;;5022477;28;20060;-46
2022/11/07 08:45:11;;;;;;;7.07;1.13;;;14.70;58.20;;;;;;5024319;28;20053;-41
2022/11/07 08:47:38;;;;;;;5.05;1.42;;;14.80;58.30;;;;;;5019446;28;20060;-42
2022/11/07 08:50:06;;;;;;;4.35;1.10;;;14.80;58.30;;;;;;5020865;28;20064;-43
2022/11/07 08:52:35;;;;;;;7.03;1.70;;;14.90;58.30;;;;;;5021189;28;20053;-42
2022/11/07 08:55:02;;;;;;;5.20;1.40;;;14.90;58.30;;;;;;5023734;28;20057;-44
2022/11/07 08:57:31;;;;;;;8.55;1.50;;;14.90;58.40;;;;;;5023457;28;20053;-42
2022/11/07 08:59:58;;;;;;;6.47;1.58;;;15.00;58.40;;;;;;5023454;28;20053;-39
2022/11/07 09:02:26;;;;;;;9.77;1.75;;;15.00;58.40;;;;;;5022776;28;20054;-40
2022/11/07 09:04:53;;;;;;;8.20;1.05;;;15.00;58.30;;;;;;5017453;28;20057;-44
2022/11/07 09:07:20;;;;;;;6.95;1.27;;;15.10;58.20;;;;;;5018601;28;20072;-45
2022/11/07 09:09:47;;;;;;;5.13;2.15;;;15.10;58.20;;;;;;5020578;28;20065;-46
2022/11/07 09:12:14;;;;;;;23.50;10.75;;;15.10;58.20;;;;;;5021978;28;20136;-45
2022/11/07 09:14:43;;;;;;;28.15;12.02;;;15.10;58.20;;;;;;5023655;28;20066;-42
2022/11/07 09:17:10;;;;;;;13.88;6.13;;;15.20;58.20;;;;;;5020955;28;20049;-46
2022/11/07 09:19:37;;;;;;;7.47;3.45;;;15.20;58.20;;;;;;5023042;28;20064;-41
2022/11/07 09:22:04;;;;;;;10.10;5.97;;;15.30;58.30;;;;;;5019532;28;20057;-41
2022/11/07 09:24:32;;;;;;;7.85;3.10;;;15.30;58.30;;;;;;5022567;28;20060;-45
2022/11/07 09:26:59;;;;;;;6.40;2.15;;;15.40;58.30;;;;;;5021898;28;20429;-45
2022/11/07 09:29:26;;;;;;;5.22;1.20;;;15.40;58.30;;;;;;5021172;28;20057;-45
2022/11/07 09:31:55;;;;;;;5.65;1.55;;;15.40;58.20;;;;;;5019861;28;20493;-46
2022/11/07 09:34:22;;;;;;;4.63;1.90;;;15.50;58.10;;;;;;5020904;28;20064;-43
2022/11/07 09:36:49;;;;;;;4.97;1.45;;;15.50;58.10;;;;;;5009421;28;20523;-42
2022/11/07 09:39:16;;;;;;;4.20;1.30;;;15.60;58.00;;;;;;5014074;28;20058;-45
2022/11/07 09:41:53;;;;;;;5.80;1.10;;;15.60;58.00;;;;;;5013374;28;20049;-50
2022/11/07 09:44:39;;;;;;;3.83;1.08;;;15.70;57.80;;;;;;5021428;28;20049;-46
2022/11/07 09:47:19;;;;;;;3.95;1.50;;;15.80;57.80;;;;;;5022388;28;20049;-40
2022/11/07 09:49:50;;;;;;;4.03;1.30;;;15.80;57.60;;;;;;5020076;28;20425;-50
2022/11/07 09:52:24;;;;;;;4.82;1.25;;;15.90;57.50;;;;;;5024176;28;20049;-44
2022/11/07 09:54:55;;;;;;;3.35;0.88;;;15.90;57.40;;;;;;5019637;28;20050;-47
2022/11/07 09:57:25;;;;;;;4.18;1.00;;;16.00;57.40;;;;;;5013569;28;20058;-45
2022/11/07 09:59:55;;;;;;;5.35;1.88;;;16.00;57.20;;;;;;5025979;28;20056;-46
2022/11/07 10:02:26;;;;;;;7.15;2.40;;;16.10;57.00;;;;;;5027069;28;20056;-49
2022/11/07 10:04:57;;;;;;;5.60;1.85;;;16.10;57.00;;;;;;5025271;28;20054;-42
2022/11/07 10:07:34;;;;;;;7.20;1.17;;;16.10;56.90;;;;;;5025565;28;20057;-46
2022/11/07 10:10:06;;;;;;;7.10;1.40;;;16.10;56.70;;;;;;5026173;28;20049;-44
2022/11/07 10:13:06;;;;;;;6.65;1.40;;;16.20;56.50;;;;;;5025511;28;20052;-48
2022/11/07 10:15:49;;;;;;;7.63;1.77;;;16.20;56.50;;;;;;5027134;28;20412;-47
2022/11/07 10:18:28;;;;;;;4.13;1.40;;;16.30;56.40;;;;;;5024268;28;20061;-50
2022/11/07 10:21:03;;;;;;;5.35;1.40;;;16.30;56.30;;;;;;5027152;28;20068;-46
2022/11/07 10:23:45;;;;;;;9.82;1.10;;;16.30;56.40;;;;;;5027343;28;20056;-46
2022/11/07 10:26:15;;;;;;;7.57;3.40;;;16.40;56.50;;;;;;5025943;28;20409;-40
2022/11/07 10:28:45;;;;;;;5.90;1.23;;;16.40;56.50;;;;;;5024449;28;20400;-47
2022/11/07 10:31:14;;;;;;;6.32;1.25;;;16.40;56.20;;;;;;5020005;28;20056;-43
2022/11/07 10:33:52;;;;;;;4.93;1.30;;;16.50;56.20;;;;;;5024176;28;20049;-46
2022/11/07 10:36:26;;;;;;;4.68;1.20;;;16.50;56.10;;;;;;5026227;28;20382;-48
2022/11/07 10:38:54;;;;;;;6.80;1.70;;;16.50;56.00;;;;;;5021292;28;20049;-45
2022/11/07 10:41:24;;;;;;;6.57;1.55;;;16.50;55.90;;;;;;5022474;28;20057;-43
2022/11/07 10:43:54;;;;;;;9.32;1.20;;;16.60;55.80;;;;;;5024299;28;20058;-46
2022/11/07 10:46:25;;;;;;;8.77;1.80;;;16.60;55.90;;;;;;5019633;28;20049;-50
2022/11/07 10:48:56;;;;;;;4.32;1.25;;;16.60;55.80;;;;;;5023092;28;20057;-46
2022/11/07 10:51:41;;;;;;;4.95;1.38;;;16.60;55.80;;;;;;5022141;28;20076;-46
2022/11/07 10:54:19;;;;;;;7.25;1.40;;;16.70;55.70;;;;;;5028261;28;20065;-46
2022/11/07 10:56:49;;;;;;;3.22;0.93;;;16.70;55.70;;;;;;5018155;28;20053;-48
2022/11/07 10:59:25;;;;;;;5.72;1.00;;;16.70;55.80;;;;;;5021967;28;20405;-50
2022/11/07 11:01:54;;;;;;;3.63;1.13;;;16.80;55.70;;;;;;5016741;28;20060;-46
2022/11/07 11:04:24;;;;;;;3.08;1.08;;;16.80;55.70;;;;;;5018627;28;20533;-47
2022/11/07 11:07:00;;;;;;;4.85;1.17;;;16.80;55.70;;;;;;5022912;28;20895;-46
2022/11/07 11:09:32;;;;;;;4.93;0.80;;;16.90;55.50;;;;;;5023938;28;20053;-47
2022/11/07 11:12:04;;;;;;;3.40;1.02;;;16.90;55.50;;;;;;5018168;28;20068;-51
2022/11/07 11:14:31;;;;;;;3.63;1.08;;;17.00;55.50;;;;;;5022680;28;20076;-46
2022/11/07 11:16:58;;;;;;;1.42;0.55;;;17.00;55.60;;;;;;5016673;28;20064;-47
2022/11/07 11:19:33;;;;;;;5.75;1.00;;;17.10;55.50;;;;;;5022008;28;20050;-51
2022/11/07 11:22:01;;;;;;;3.55;1.10;;;17.10;55.30;;;;;;5019401;28;20053;-50
2022/11/07 11:24:36;;;;;;;2.65;0.80;;;17.10;55.30;;;;;;5018667;28;20061;-48
2022/11/07 11:27:12;;;;;;;5.15;0.70;;;17.20;55.20;;;;;;5015976;28;20487;-54
2022/11/07 11:29:50;;;;;;;7.72;3.05;;;17.20;55.00;;;;;;5015769;28;20060;-52
2022/11/07 11:32:24;;;;;;;3.83;1.13;;;17.30;54.80;;;;;;5010488;28;20056;-50
2022/11/07 11:35:02;;;;;;;2.50;0.85;;;17.30;54.60;;;;;;5021957;28;20080;-47
2022/11/07 11:37:32;;;;;;;3.72;0.80;;;17.40;54.30;;;;;;5020429;28;20404;-50
2022/11/07 11:40:15;;;;;;;2.30;0.80;;;17.40;54.20;;;;;;5023170;28;20068;-51
2022/11/07 11:42:56;;;;;;;1.83;0.60;;;17.40;54.20;;;;;;5025159;28;20504;-49
2022/11/07 11:45:33;;;;;;;3.95;0.85;;;17.40;54.20;;;;;;5021641;28;20848;-51
2022/11/07 11:48:05;;;;;;;3.03;0.80;;;17.40;54.30;;;;;;5020712;28;20057;-51
2022/11/07 11:50:41;;;;;;;3.35;0.75;;;17.40;54.30;;;;;;5021036;28;20056;-50
2022/11/07 11:53:14;;;;;;;5.10;0.82;;;17.40;54.20;;;;;;5015996;28;20057;-50
2022/11/07 11:55:48;;;;;;;3.77;0.93;;;17.50;54.30;;;;;;5022024;28;20072;-48
2022/11/07 11:58:28;;;;;;;3.85;0.85;;;17.50;54.30;;;;;;5017369;28;20497;-47
2022/11/07 12:01:03;;;;;;;1.08;0.47;;;17.50;54.00;;;;;;5021595;28;20057;-49
2022/11/07 12:03:44;;;;;;;2.75;0.60;;;17.50;54.10;;;;;;5024056;28;20050;-49
2022/11/07 12:06:15;;;;;;;3.20;0.65;;;17.50;54.00;;;;;;5022843;28;20060;-49
2022/11/07 12:08:55;;;;;;;1.52;0.55;;;17.60;53.90;;;;;;5019328;28;20413;-44
2022/11/07 12:11:30;;;;;;;2.53;0.65;;;17.60;53.80;;;;;;5023017;28;20061;-51
2022/11/07 12:14:06;;;;;;;3.60;0.65;;;17.60;53.70;;;;;;5023464;28;20053;-52
2022/11/07 12:16:41;;;;;;;3.35;0.75;;;17.60;53.80;;;;;;5022813;28;20053;-48
2022/11/07 12:19:18;;;;;;;2.97;0.60;;;17.60;53.80;;;;;;5022075;28;20401;-48
2022/11/07 12:21:56;;;;;;;2.15;0.52;;;17.70;53.70;;;;;;5021891;28;20045;-51
2022/11/07 12:24:33;;;;;;;2.63;0.50;;;17.70;53.80;;;;;;5023891;28;20050;-51
2022/11/07 12:27:09;;;;;;;2.10;0.45;;;17.70;53.80;;;;;;5020866;28;20485;-45
2022/11/07 12:29:55;;;;;;;3.33;0.70;;;17.70;53.60;;;;;;5020764;28;20053;-51
2022/11/07 12:32:32;;;;;;;3.20;0.47;;;17.70;53.50;;;;;;5022052;28;20045;-49
2022/11/07 12:35:13;;;;;;;4.35;1.70;;;17.80;53.70;;;;;;5022658;28;20088;-50
2022/11/07 12:38:02;;;;;;;3.92;1.20;;;17.80;53.70;;;;;;5021683;28;20053;-48
2022/11/07 12:40:38;;;;;;;1.83;0.60;;;17.80;53.60;;;;;;5018796;28;20076;-49
2022/11/07 12:43:20;;;;;;;3.63;0.73;;;17.80;53.50;;;;;;5023784;28;20045;-49
2022/11/07 12:45:55;;;;;;;1.80;0.52;;;17.80;53.40;;;;;;5023769;28;20057;-49
2022/11/07 12:48:52;;;;;;;1.90;0.63;;;17.80;53.40;;;;;;5020759;28;20409;-51
2022/11/07 12:51:32;;;;;;;2.67;1.05;;;17.80;53.50;;;;;;5018426;28;20049;-45
2022/11/07 12:54:15;;;;;;;2.35;1.10;;;17.80;53.30;;;;;;5023032;28;20049;-43
2022/11/07 12:56:45;;;;;;;2.85;0.70;;;17.80;53.00;;;;;;5023767;28;20068;-50
2022/11/07 12:59:24;;;;;;;5.30;0.68;;;17.80;53.00;;;;;;5021006;28;20057;-48
2022/11/07 13:02:00;;;;;;;3.10;1.20;;;17.80;52.80;;;;;;5020959;28;20080;-49
2022/11/07 13:04:35;;;;;;;3.13;0.70;;;17.80;52.80;;;;;;5019427;28;20524;-49
2022/11/07 13:07:08;;;;;;;3.45;0.63;;;17.80;52.80;;;;;;5020364;28;20072;-50
2022/11/07 13:09:46;;;;;;;5.78;1.33;;;17.80;52.70;;;;;;5018941;28;20050;-50
2022/11/07 13:12:22;;;;;;;2.72;1.08;;;17.80;52.80;;;;;;5012225;28;20053;-50
2022/11/07 13:14:50;;;;;;;3.38;1.10;;;17.80;52.80;;;;;;5012037;28;20060;-47